createdAt,value
2023-03-21T01:26:05.404Z,61.50
2023-03-21T01:31:02.200Z,65.50
2023-03-21T01:33:30.624Z,68.00
2023-03-21T01:36:10.291Z,71.80
2023-03-21T01:38:42.575Z,76.30
2023-03-21T01:58:47.934Z,44.50
2023-03-21T02:01:16.797Z,45.00
2023-03-21T02:03:51.291Z,45.10
2023-03-21T02:06:24.702Z,45.20
2023-03-21T02:08:54.458Z,45.10
2023-03-21T02:11:23.760Z,45.20
2023-03-21T02:13:55.822Z,45.20
2023-03-21T02:16:34.907Z,45.20
2023-03-21T02:19:12.685Z,45.20
2023-03-21T02:21:51.558Z,45.30
2023-03-21T02:24:31.331Z,46.00
2023-03-21T02:27:07.599Z,45.30
2023-03-21T02:30:20.205Z,45.30
2023-03-21T02:33:14.493Z,45.30
2023-03-21T02:35:56.840Z,45.30
2023-03-21T02:38:30.319Z,45.30
2023-03-21T02:41:05.335Z,45.30
2023-03-21T02:43:38.752Z,45.30
2023-03-21T02:46:09.336Z,45.30
2023-03-21T02:48:50.296Z,45.30
2023-03-21T02:51:20.009Z,45.30
2023-03-21T02:54:12.948Z,45.30
2023-03-21T02:56:41.483Z,45.30
2023-03-21T02:59:09.460Z,45.30
2023-03-21T03:01:37.436Z,45.30
2023-03-21T03:04:05.674Z,45.90
2023-03-21T03:06:38.295Z,45.30
2023-03-21T03:09:17.705Z,45.20
2023-03-21T03:11:46.085Z,45.30
2023-03-21T03:14:44.153Z,45.10
2023-03-21T03:17:21.549Z,45.20
2023-03-21T03:19:55.781Z,45.10
2023-03-21T03:22:26.009Z,45.20
2023-03-21T03:24:57.148Z,45.20
2023-03-21T03:27:27.003Z,45.20
2023-03-21T03:29:54.955Z,45.20
2023-03-21T03:32:27.164Z,45.90
2023-03-21T03:34:56.281Z,45.10
2023-03-21T03:37:27.497Z,45.10
2023-03-21T03:39:59.351Z,45.10
2023-03-21T03:42:29.263Z,45.10
2023-03-21T03:44:57.293Z,45.10
2023-03-21T03:47:32.897Z,45.10
2023-03-21T03:50:06.452Z,45.10
2023-03-21T03:52:40.023Z,45.10
2023-03-21T03:55:13.219Z,45.10
2023-03-21T03:57:42.188Z,45.00
2023-03-21T04:00:13.028Z,45.10
2023-03-21T04:02:41.042Z,45.00
2023-03-21T04:05:09.899Z,45.00
2023-03-21T04:07:38.189Z,45.00
2023-03-21T04:10:06.990Z,45.00
2023-03-21T04:12:36.324Z,45.00
2023-03-21T04:15:10.746Z,44.90
2023-03-21T04:17:39.575Z,45.00
2023-03-21T04:20:15.003Z,44.90
2023-03-21T04:22:46.676Z,44.90
2023-03-21T04:25:21.924Z,44.90
2023-03-21T04:27:55.616Z,44.90
2023-03-21T04:30:24.780Z,44.90
2023-03-21T04:32:56.697Z,44.80
2023-03-21T04:35:25.053Z,44.80
2023-03-21T04:37:53.073Z,44.80
2023-03-21T04:40:21.084Z,44.80
2023-03-21T04:42:49.430Z,44.80
2023-03-21T04:45:18.902Z,44.80
2023-03-21T04:47:47.166Z,44.80
2023-03-21T04:50:15.911Z,44.80
2023-03-21T04:52:45.611Z,44.80
2023-03-21T04:55:14.661Z,44.80
2023-03-21T04:57:42.663Z,44.70
2023-03-21T05:00:14.476Z,44.70
2023-03-21T05:02:43.939Z,44.80
2023-03-21T05:05:12.362Z,45.40
2023-03-21T05:07:40.376Z,44.80
2023-03-21T05:10:09.563Z,44.80
2023-03-21T05:12:37.554Z,44.80
2023-03-21T05:15:07.851Z,44.70
2023-03-21T05:17:36.615Z,44.70
2023-03-21T05:20:09.724Z,44.70
2023-03-21T05:22:40.784Z,44.60
2023-03-21T05:25:09.724Z,44.60
2023-03-21T05:27:37.744Z,44.60
2023-03-21T05:30:07.224Z,44.70
2023-03-21T05:32:35.627Z,44.70
2023-03-21T05:35:05.136Z,44.70
2023-03-21T05:37:33.079Z,44.60
2023-03-21T05:40:01.082Z,44.60
2023-03-21T05:42:29.190Z,44.60
2023-03-21T05:44:57.154Z,44.70
2023-03-21T05:47:25.125Z,44.70
2023-03-21T05:49:53.074Z,44.70
2023-03-21T05:52:22.639Z,45.30
2023-03-21T05:54:50.663Z,44.70
2023-03-21T05:57:19.213Z,44.60
2023-03-21T05:59:47.171Z,45.20
2023-03-21T06:02:15.711Z,44.60
2023-03-21T06:04:44.282Z,44.60
2023-03-21T06:07:12.267Z,45.30
2023-03-21T06:09:42.698Z,45.20
2023-03-21T06:12:10.670Z,44.60
2023-03-21T06:14:38.617Z,44.60
2023-03-21T06:17:06.602Z,44.60
2023-03-21T06:19:37.032Z,44.60
2023-03-21T06:22:05.148Z,44.60
2023-03-21T06:24:33.536Z,44.60
2023-03-21T06:27:04.077Z,44.60
2023-03-21T06:29:32.217Z,44.60
2023-03-21T06:32:00.707Z,44.60
2023-03-21T06:34:28.679Z,44.60
2023-03-21T06:36:56.954Z,44.60
2023-03-21T06:39:24.914Z,44.50
2023-03-21T06:41:52.866Z,44.50
2023-03-21T06:44:22.814Z,44.50
2023-03-21T06:46:50.965Z,44.50
2023-03-21T06:49:19.002Z,44.50
2023-03-21T06:51:46.973Z,44.60
2023-03-21T06:54:17.683Z,44.50
2023-03-21T06:56:45.806Z,44.60
2023-03-21T06:59:13.761Z,44.60
2023-03-21T07:01:43.805Z,44.50
2023-03-21T07:04:11.812Z,44.60
2023-03-21T07:06:39.802Z,44.60
2023-03-21T07:09:07.884Z,44.70
2023-03-21T07:11:36.904Z,44.70
2023-03-21T07:14:04.894Z,44.70
2023-03-21T07:16:34.930Z,44.70
2023-03-21T07:19:04.372Z,45.00
2023-03-21T07:21:32.750Z,45.10
2023-03-21T07:24:01.152Z,45.20
2023-03-21T07:26:29.250Z,45.30
2023-03-21T07:28:57.233Z,45.50
2023-03-21T07:31:26.752Z,45.60
2023-03-21T07:33:54.752Z,45.80
2023-03-21T07:36:26.564Z,46.00
2023-03-21T07:38:54.514Z,46.30
2023-03-21T07:41:22.491Z,46.70
2023-03-21T07:43:50.523Z,47.10
2023-03-21T07:46:18.622Z,47.60
2023-03-21T07:48:46.615Z,48.20
2023-03-21T07:51:14.686Z,48.70
2023-03-21T07:53:48.844Z,49.40
2023-03-21T07:56:17.022Z,49.80
2023-03-21T07:58:46.554Z,51.70
2023-03-21T08:01:14.552Z,57.50
2023-03-21T08:06:11.719Z,45.20
2023-03-21T08:08:39.936Z,46.10
2023-03-21T08:11:09.503Z,46.30
2023-03-21T08:13:37.456Z,46.60
2023-03-21T08:16:05.985Z,47.10
2023-03-21T08:18:34.309Z,47.30
2023-03-21T08:21:02.832Z,47.70
2023-03-21T08:23:31.107Z,47.90
2023-03-21T08:26:01.514Z,48.40
2023-03-21T08:28:31.407Z,48.60
2023-03-21T08:30:59.454Z,49.10
2023-03-21T08:33:27.481Z,50.20
2023-03-21T08:35:55.756Z,50.00
2023-03-21T08:38:29.807Z,50.60
2023-03-21T08:41:05.436Z,51.20
2023-03-21T08:46:04.536Z,87.00
2023-03-21T08:48:32.610Z,58.20
2023-03-21T08:51:01.415Z,52.40
2023-03-21T08:53:30.254Z,50.20
2023-03-21T08:55:58.249Z,49.20
2023-03-21T08:58:34.490Z,48.30
2023-03-21T09:01:03.904Z,48.30
2023-03-21T09:03:31.904Z,48.30
2023-03-21T09:06:00.773Z,47.90
2023-03-21T09:08:28.780Z,47.40
2023-03-21T09:10:57.360Z,47.00
2023-03-21T09:13:25.617Z,47.20
2023-03-21T09:15:54.203Z,47.30
2023-03-21T09:18:43.864Z,47.90
2023-03-21T09:21:16.596Z,47.20
2023-03-21T09:23:48.530Z,47.50
2023-03-21T09:26:16.939Z,47.60
2023-03-21T09:28:46.219Z,49.10
2023-03-21T09:31:16.647Z,50.40
2023-03-21T09:33:46.308Z,53.00
2023-03-21T09:36:15.513Z,55.10
2023-03-21T09:38:45.673Z,50.30
2023-03-21T09:41:22.295Z,51.90
2023-03-21T09:43:58.356Z,54.00
2023-03-21T09:46:28.728Z,52.90
2023-03-21T09:48:59.621Z,53.90
2023-03-21T09:51:29.367Z,54.60
2023-03-21T09:56:27.143Z,53.40
2023-03-21T09:58:58.688Z,54.80
2023-03-21T10:01:28.488Z,51.90
2023-03-21T10:04:00.377Z,52.20
2023-03-21T10:06:30.595Z,53.10
2023-03-21T10:09:00.453Z,55.90
2023-03-21T10:11:29.713Z,53.70
2023-03-21T10:13:58.451Z,54.30
2023-03-21T10:16:28.874Z,57.40
2023-03-21T10:18:58.488Z,54.40
2023-03-21T10:21:56.385Z,54.90
2023-03-21T10:24:18.491Z,62.10
2023-03-21T10:26:46.456Z,55.00
2023-03-21T10:29:16.567Z,59.40
2023-03-21T10:31:44.822Z,59.90
2023-03-21T10:34:17.861Z,56.00
2023-03-21T10:36:46.434Z,52.30
2023-03-21T10:39:22.152Z,52.60
2023-03-21T10:41:50.132Z,52.80
2023-03-21T10:44:18.794Z,52.90
2023-03-21T10:46:54.283Z,52.90
2023-03-21T10:49:23.700Z,53.00
2023-03-21T10:51:52.947Z,53.30
2023-03-21T10:54:22.009Z,54.10
2023-03-21T10:56:57.010Z,55.10
2023-03-21T10:59:25.063Z,56.20
2023-03-21T11:01:55.270Z,52.90
2023-03-21T11:04:26.809Z,55.30
2023-03-21T11:06:55.916Z,58.10
2023-03-21T11:09:25.070Z,54.30
2023-03-21T11:11:54.792Z,54.70
2023-03-21T11:14:28.302Z,55.50
2023-03-21T11:16:56.381Z,54.90
2023-03-21T11:19:32.372Z,53.90
2023-03-21T11:22:00.430Z,53.70
2023-03-21T11:24:30.219Z,54.00
2023-03-21T11:26:59.753Z,54.60
2023-03-21T11:29:30.415Z,55.00
2023-03-21T11:32:02.520Z,54.70
2023-03-21T11:34:35.885Z,56.10
2023-03-21T11:37:04.273Z,61.30
2023-03-21T11:39:34.197Z,55.70
2023-03-21T11:42:02.184Z,63.80
2023-03-21T11:44:33.382Z,57.40
2023-03-21T11:47:01.900Z,58.30
2023-03-21T11:49:29.940Z,59.60
2023-03-21T11:52:07.557Z,58.30
2023-03-21T11:54:41.836Z,64.20
2023-03-21T11:59:43.518Z,59.60
2023-03-21T12:02:45.238Z,58.10
2023-03-21T12:05:20.031Z,53.30
2023-03-21T12:07:53.345Z,53.50
2023-03-21T12:10:32.231Z,53.70
2023-03-21T12:13:05.650Z,53.90
2023-03-21T12:15:37.320Z,54.60
2023-03-21T12:18:08.042Z,55.30
2023-03-21T12:20:42.446Z,57.20
2023-03-21T12:23:21.955Z,55.80
2023-03-21T12:25:54.209Z,56.70
2023-03-21T12:28:33.012Z,63.30
2023-03-21T12:31:05.441Z,55.70
2023-03-21T12:33:43.158Z,55.40
2023-03-21T12:36:32.682Z,55.50
2023-03-21T12:39:06.838Z,56.00
2023-03-21T12:41:35.543Z,56.40
2023-03-21T12:44:04.874Z,57.70
2023-03-21T12:46:35.708Z,62.20
2023-03-21T12:49:04.676Z,55.60
2023-03-21T12:51:34.138Z,54.50
2023-03-21T12:54:12.290Z,54.70
2023-03-21T12:56:42.988Z,55.20
2023-03-21T12:59:17.361Z,55.50
2023-03-21T13:01:45.334Z,55.60
2023-03-21T13:04:36.781Z,56.00
2023-03-21T13:07:06.495Z,56.10
2023-03-21T13:09:38.423Z,56.70
2023-03-21T13:12:23.586Z,54.10
2023-03-21T13:15:07.813Z,53.70
2023-03-21T13:17:40.175Z,53.70
2023-03-21T13:20:12.036Z,54.20
2023-03-21T13:22:40.220Z,54.60
2023-03-21T13:25:18.265Z,55.70
2023-03-21T13:27:51.774Z,56.90
2023-03-21T13:30:21.337Z,59.20
2023-03-21T13:32:50.453Z,57.80
2023-03-21T13:35:20.593Z,55.80
2023-03-21T13:37:51.888Z,59.10
2023-03-21T13:42:54.147Z,54.30
2023-03-21T13:45:29.199Z,55.60
2023-03-21T13:47:57.835Z,55.60
2023-03-21T13:50:30.769Z,55.70
2023-03-21T13:53:24.401Z,56.00
2023-03-21T13:56:26.712Z,56.20
2023-03-21T13:58:56.712Z,56.80
2023-03-21T14:01:39.802Z,57.80
2023-03-21T14:04:12.575Z,59.40
2023-03-21T14:06:49.063Z,57.60
2023-03-21T14:09:21.346Z,54.50
2023-03-21T14:11:54.661Z,55.00
2023-03-21T14:14:26.158Z,57.90
2023-03-21T14:16:55.357Z,59.10
2023-03-21T14:19:29.172Z,61.00
2023-03-21T14:21:57.160Z,57.00
2023-03-21T14:24:26.051Z,57.40
2023-03-21T14:26:58.974Z,58.90
2023-03-21T14:29:29.025Z,65.00
2023-03-21T14:31:59.920Z,60.00
2023-03-21T14:34:28.198Z,63.10
2023-03-21T14:36:58.673Z,57.80
2023-03-21T14:39:28.807Z,54.80
2023-03-21T14:41:58.782Z,55.60
2023-03-21T14:44:27.936Z,58.30
2023-03-21T14:47:00.588Z,57.10
2023-03-21T14:49:29.491Z,58.00
2023-03-21T14:51:58.581Z,61.70
2023-03-21T14:54:27.301Z,56.20
2023-03-21T14:57:01.293Z,56.60
2023-03-21T14:59:33.156Z,57.00
2023-03-21T15:02:02.688Z,57.20
2023-03-21T15:04:31.806Z,59.90
2023-03-21T15:07:03.387Z,54.80
2023-03-21T15:09:39.744Z,53.80
2023-03-21T15:12:10.861Z,54.60
2023-03-21T15:14:39.052Z,54.60
2023-03-21T15:17:09.207Z,55.20
2023-03-21T15:19:38.553Z,55.50
2023-03-21T15:22:10.286Z,56.20
2023-03-21T15:24:40.394Z,58.20
2023-03-21T15:27:13.729Z,56.90
2023-03-21T15:29:43.354Z,55.10
2023-03-21T15:32:16.247Z,55.20
2023-03-21T15:34:44.604Z,55.40
2023-03-21T15:37:17.154Z,55.60
2023-03-21T15:39:45.212Z,56.70
2023-03-21T15:42:31.104Z,61.40
2023-03-21T15:45:03.398Z,56.70
2023-03-21T15:47:45.583Z,57.30
2023-03-21T15:50:23.471Z,58.50
2023-03-21T15:52:52.045Z,56.30
2023-03-21T15:55:27.141Z,56.50
2023-03-21T15:58:01.355Z,57.70
2023-03-21T16:00:35.908Z,57.80
2023-03-21T16:03:06.492Z,56.80
2023-03-21T16:05:35.999Z,57.00
2023-03-21T16:08:08.987Z,56.90
2023-03-21T16:10:38.679Z,57.40
2023-03-21T16:13:08.138Z,58.20
2023-03-21T16:15:36.242Z,60.20
2023-03-21T16:18:06.211Z,57.40
2023-03-21T16:20:39.303Z,61.80
2023-03-21T16:23:08.138Z,57.60
2023-03-21T16:25:36.300Z,57.50
2023-03-21T16:28:04.312Z,57.70
2023-03-21T16:30:33.698Z,58.70
2023-03-21T16:33:01.723Z,59.30
2023-03-21T16:35:29.737Z,59.50
2023-03-21T16:37:58.167Z,56.10
2023-03-21T16:40:28.834Z,56.10
2023-03-21T16:42:56.812Z,56.70
2023-03-21T16:45:24.838Z,58.90
2023-03-21T16:47:54.726Z,61.80
2023-03-21T16:50:26.743Z,61.50
2023-03-21T16:52:54.892Z,57.00
2023-03-21T16:55:22.897Z,53.50
2023-03-21T16:57:52.485Z,53.80
2023-03-21T17:00:25.731Z,53.80
2023-03-21T17:02:58.909Z,54.00
2023-03-21T17:05:29.004Z,54.30
2023-03-21T17:07:57.293Z,54.60
2023-03-21T17:10:27.355Z,55.20
2023-03-21T17:12:55.430Z,56.50
2023-03-21T17:15:23.401Z,56.00
2023-03-21T17:17:52.067Z,54.80
2023-03-21T17:20:23.021Z,54.70
2023-03-21T17:22:52.937Z,54.60
2023-03-21T17:25:21.454Z,54.80
2023-03-21T17:27:56.822Z,55.10
2023-03-21T17:30:27.897Z,55.20
2023-03-21T17:32:56.143Z,55.60
2023-03-21T17:35:27.069Z,56.20
2023-03-21T17:37:58.420Z,63.90
2023-03-21T17:40:27.789Z,58.00
2023-03-21T17:42:56.191Z,58.30
2023-03-21T17:45:24.208Z,58.30
2023-03-21T17:47:52.583Z,61.40
2023-03-21T17:50:22.605Z,64.80
2023-03-21T17:52:52.218Z,58.00
2023-03-21T17:55:21.315Z,58.90
2023-03-21T17:57:49.363Z,58.50
2023-03-21T18:05:17.456Z,68.40
2023-03-21T18:08:08.646Z,68.40
2023-03-21T18:10:35.594Z,71.80
2023-03-21T18:13:03.875Z,65.20
2023-03-21T18:15:31.887Z,65.70
2023-03-21T18:18:04.343Z,63.90
2023-03-21T18:23:21.427Z,65.30
2023-03-21T18:25:53.288Z,67.40
2023-03-21T18:28:21.763Z,66.80
2023-03-21T18:31:07.852Z,70.90
2023-03-21T18:33:39.039Z,68.50
2023-03-21T18:36:08.206Z,76.30
2023-03-21T18:38:36.490Z,73.20
2023-03-21T18:41:06.206Z,70.10
2023-03-21T18:48:51.777Z,72.10
2023-03-21T18:51:21.870Z,64.00
2023-03-21T18:53:49.886Z,65.80
2023-03-21T18:57:13.061Z,63.40
2023-03-21T18:59:11.741Z,62.10
2023-03-21T19:01:39.809Z,68.50
2023-03-21T19:04:21.507Z,70.50
2023-03-21T19:06:51.667Z,66.40
2023-03-21T19:11:49.577Z,63.30
2023-03-21T19:14:17.946Z,66.30
2023-03-21T19:17:34.198Z,69.60
2023-03-21T19:24:31.925Z,58.40
2023-03-21T19:27:01.403Z,61.50
2023-03-21T19:31:58.099Z,56.50
2023-03-21T19:34:26.567Z,60.40
2023-03-21T19:36:55.128Z,62.40
2023-03-21T19:39:24.028Z,62.90
2023-03-21T19:41:55.335Z,62.10
2023-03-21T19:44:33.393Z,63.50
2023-03-21T20:07:33.364Z,58.70
2023-03-21T20:10:01.695Z,56.50
2023-03-21T20:12:29.755Z,57.10
2023-03-21T20:15:12.149Z,59.20
2023-03-21T20:17:45.133Z,70.60
2023-03-21T20:20:17.435Z,59.70
2023-03-21T20:23:07.361Z,58.20
2023-03-21T20:25:36.474Z,58.60
2023-03-21T20:28:25.940Z,57.50
2023-03-21T20:30:56.830Z,57.90
2023-03-21T20:33:25.209Z,58.50
2023-03-21T20:38:47.671Z,58.00
2023-03-21T20:46:35.288Z,58.80
2023-03-21T20:49:06.709Z,63.20
2023-03-21T20:54:24.958Z,74.50
2023-03-21T20:56:53.247Z,64.80
2023-03-21T20:59:27.113Z,67.10
2023-03-21T21:01:57.749Z,66.90
2023-03-21T21:04:46.990Z,66.00
2023-03-21T21:07:17.127Z,66.60
2023-03-21T21:12:15.035Z,71.10
2023-03-21T21:14:43.620Z,75.60
2023-03-21T21:20:02.330Z,67.70
2023-03-21T21:22:31.577Z,69.50
2023-03-21T21:27:28.581Z,66.50
2023-03-21T21:29:57.504Z,59.10
2023-03-21T21:32:26.818Z,59.90
2023-03-21T21:34:57.339Z,61.30
2023-03-21T21:37:25.978Z,61.70
2023-03-21T21:39:54.043Z,63.00
2023-03-21T21:42:22.406Z,59.30
2023-03-21T21:44:50.334Z,61.40
2023-03-21T21:49:48.521Z,48.50
2023-03-21T21:52:24.096Z,51.20
2023-03-21T21:54:52.463Z,52.00
2023-03-21T21:57:20.425Z,52.30
2023-03-21T21:59:48.386Z,52.90
2023-03-21T22:02:17.150Z,53.90
2023-03-21T22:04:45.189Z,58.60
2023-03-21T22:07:15.149Z,57.70
2023-03-21T22:14:41.961Z,53.20
2023-03-21T22:17:09.948Z,54.20
2023-03-21T22:19:40.284Z,56.20
2023-03-21T22:22:08.546Z,55.70
2023-03-21T22:24:38.299Z,55.40
2023-03-21T22:29:35.412Z,54.40
2023-03-21T22:47:03.990Z,69.10
2023-03-21T22:49:32.963Z,66.20
2023-03-21T23:09:29.285Z,51.60
2023-03-21T23:11:57.246Z,54.90
2023-03-21T23:16:55.049Z,59.00
2023-03-21T23:24:21.949Z,52.30
2023-03-21T23:26:49.941Z,57.10
2023-03-21T23:31:47.762Z,58.00
2023-03-21T23:36:44.079Z,58.70
